Sharp, Texas
Current Conditions -  °F | °C
As of 11:55 AM on Friday 31 Oct 2014 (Local Time) from KT35 Reporting Station
Clear Clear  
Wind Chill: 70°   Ceiling: Unl
Heat Index: 70°   Visibility: 10mi
Dew Point: 44°   Wind: 13mph
Humidity: 39%   Direction: 360°N
Pressure: 30.29"   Gusts: 24mph
Location:  30.8953°N, 97.127°W
Report Text: KT35 311655Z AUTO 36011G21KT 10SM CLR 21/07 A3029 RMK AO2 T02120068
Loading
Personal Weather Stations






























Interactive Weather Map
Tropical Storm Tracking
New forecast layout! Learn more

10-Day Weather Forecast

Advertisements
Track Severe Weather on mobile